Time;durP1;ratioP1;P1;durP2;ratioP2;P2;SDS_P1;SDS_P2;PMS_P1;PMS_P2;Temp;Humidity;BMP_temperature;BMP_pressure;BME280_temperature;BME280_humidity;BME280_pressure;Samples;Min_cycle;Max_cycle;Signal;HPM_P1;HPM_P2
2023/07/28 00:00:29;;;;;;;20.23;10.50;;;18.10;99.90;;;;;;5092669;28;20055;-84
2023/07/28 00:02:55;;;;;;;23.47;9.73;;;18.10;99.90;;;;;;5059031;28;20091;-85
2023/07/28 00:05:21;;;;;;;22.67;10.37;;;18.10;99.90;;;;;;5094112;28;20400;-84
2023/07/28 00:07:46;;;;;;;23.43;11.50;;;18.10;99.90;;;;;;5092730;28;20052;-84
2023/07/28 00:10:12;;;;;;;25.33;10.17;;;18.10;99.90;;;;;;5094018;28;20067;-83
2023/07/28 00:12:38;;;;;;;22.73;11.20;;;18.10;99.90;;;;;;5093695;28;20043;-83
2023/07/28 00:15:04;;;;;;;25.37;11.63;;;18.10;99.90;;;;;;5094017;28;20047;-83
2023/07/28 00:17:30;;;;;;;25.70;11.07;;;18.10;99.90;;;;;;5092215;28;20044;-83
2023/07/28 00:19:55;;;;;;;19.73;11.27;;;18.10;99.90;;;;;;5091627;28;20044;-84
2023/07/28 00:22:21;;;;;;;26.23;11.77;;;18.10;99.90;;;;;;5094906;28;20122;-84
2023/07/28 00:24:47;;;;;;;28.93;11.30;;;18.10;99.90;;;;;;5096469;28;20048;-84
2023/07/28 00:27:14;;;;;;;28.90;12.23;;;18.10;99.90;;;;;;5093428;28;20040;-85
2023/07/28 00:29:41;;;;;;;25.67;11.97;;;18.10;99.90;;;;;;5092596;28;20048;-83
2023/07/28 00:32:07;;;;;;;25.20;12.80;;;18.10;99.90;;;;;;5093611;28;20036;-84
2023/07/28 00:34:33;;;;;;;26.73;12.50;;;18.10;99.90;;;;;;5093435;28;20546;-84
2023/07/28 00:36:58;;;;;;;31.00;13.63;;;18.10;99.90;;;;;;5093080;28;20130;-84
2023/07/28 00:39:24;;;;;;;35.00;14.40;;;18.10;99.90;;;;;;5093513;28;20055;-86
2023/07/28 00:41:50;;;;;;;32.17;14.30;;;18.10;99.90;;;;;;5093080;28;20472;-85
2023/07/28 00:44:17;;;;;;;31.87;13.57;;;18.10;99.90;;;;;;5093349;28;20103;-84
2023/07/28 00:46:44;;;;;;;27.27;13.63;;;18.10;99.90;;;;;;5093206;28;20411;-83
2023/07/28 00:49:09;;;;;;;31.43;14.17;;;18.10;99.90;;;;;;5092375;28;20468;-85
2023/07/28 00:51:37;;;;;;;28.10;14.13;;;18.10;99.90;;;;;;5093257;28;20108;-85
2023/07/28 00:54:05;;;;;;;33.07;14.70;;;18.10;99.90;;;;;;5093177;28;20044;-85
2023/07/28 00:56:31;;;;;;;32.07;13.53;;;18.10;99.90;;;;;;5092931;28;20102;-85
2023/07/28 00:58:57;;;;;;;29.43;13.30;;;18.10;99.90;;;;;;5092136;28;20055;-84
2023/07/28 01:01:23;;;;;;;32.07;13.03;;;18.10;99.90;;;;;;5093225;28;20040;-84
2023/07/28 01:03:50;;;;;;;29.03;13.30;;;18.10;99.90;;;;;;5091605;28;20459;-85
2023/07/28 01:06:20;;;;;;;28.87;12.97;;;18.10;99.90;;;;;;5091770;28;20059;-85
2023/07/28 01:08:54;;;;;;;41.40;13.67;;;18.10;99.90;;;;;;5092716;28;20543;-85
2023/07/28 01:11:19;;;;;;;34.77;12.90;;;18.10;99.90;;;;;;5093460;28;20040;-84
2023/07/28 01:13:46;;;;;;;30.77;14.00;;;18.10;99.90;;;;;;5092162;28;20110;-83
2023/07/28 01:16:12;;;;;;;26.27;12.60;;;18.10;99.90;;;;;;5093299;28;20419;-86
2023/07/28 01:18:38;;;;;;;31.87;13.73;;;18.10;99.90;;;;;;5093054;28;20040;-85
2023/07/28 01:21:06;;;;;;;26.57;13.80;;;18.20;99.90;;;;;;5092701;28;20055;-85
2023/07/28 01:23:59;;;;;;;33.73;13.93;;;18.10;99.90;;;;;;5092885;28;20040;-85
2023/07/28 01:26:43;;;;;;;34.30;13.43;;;18.10;99.90;;;;;;5073099;28;20052;-84
2023/07/28 01:29:10;;;;;;;31.58;13.88;;;18.10;99.90;;;;;;5090780;28;20059;-84
2023/07/28 01:31:36;;;;;;;26.17;12.97;;;18.10;99.90;;;;;;5097019;28;20480;-85
2023/07/28 01:34:02;;;;;;;29.10;12.83;;;18.10;99.90;;;;;;5096575;28;20040;-85
2023/07/28 01:36:27;;;;;;;27.60;13.30;;;18.10;99.90;;;;;;5096776;28;20054;-84
2023/07/28 01:38:54;;;;;;;36.07;13.27;;;18.10;99.90;;;;;;5096606;28;20127;-84
2023/07/28 01:41:19;;;;;;;27.47;12.60;;;18.10;99.90;;;;;;5095985;28;20052;-84
2023/07/28 01:43:45;;;;;;;32.30;12.70;;;18.10;99.90;;;;;;5096653;28;20552;-85
2023/07/28 01:46:11;;;;;;;31.40;11.07;;;18.10;99.90;;;;;;5096371;28;20051;-86
2023/07/28 01:48:37;;;;;;;22.20;11.20;;;18.10;99.90;;;;;;5095278;28;20047;-85
2023/07/28 01:51:03;;;;;;;28.97;11.60;;;18.10;99.90;;;;;;5096134;28;20047;-85
2023/07/28 01:53:28;;;;;;;24.50;10.07;;;18.10;99.90;;;;;;5096528;28;20040;-85
2023/07/28 01:55:54;;;;;;;26.00;10.07;;;18.10;99.90;;;;;;5094517;28;20044;-84
2023/07/28 01:58:20;;;;;;;27.20;9.93;;;18.10;99.90;;;;;;5096762;28;20169;-84
2023/07/28 02:00:46;;;;;;;30.53;10.53;;;18.10;99.90;;;;;;5095001;28;20491;-85
2023/07/28 02:03:12;;;;;;;26.50;9.20;;;18.10;99.90;;;;;;5095843;28;20165;-85
2023/07/28 02:05:37;;;;;;;33.83;9.17;;;18.10;99.90;;;;;;5095916;28;20087;-85
2023/07/28 02:08:03;;;;;;;24.47;8.40;;;18.10;99.90;;;;;;5096047;28;20117;-85
2023/07/28 02:10:30;;;;;;;25.67;9.63;;;18.10;99.90;;;;;;5096211;28;20052;-85
2023/07/28 02:12:56;;;;;;;29.77;9.70;;;18.10;99.90;;;;;;5095786;28;20445;-85
2023/07/28 02:15:21;;;;;;;27.53;9.17;;;18.10;99.90;;;;;;5096249;28;20130;-85
2023/07/28 02:17:47;;;;;;;28.93;8.70;;;18.10;99.90;;;;;;5095933;28;20044;-85
2023/07/28 02:20:15;;;;;;;21.83;8.60;;;18.10;99.90;;;;;;5094723;28;20094;-86
2023/07/28 02:22:42;;;;;;;24.37;9.10;;;18.10;99.90;;;;;;5094741;28;20488;-84
2023/07/28 02:25:08;;;;;;;29.00;10.33;;;18.10;99.90;;;;;;5094447;28;20040;-84
2023/07/28 02:27:33;;;;;;;26.33;8.47;;;18.10;99.90;;;;;;5095908;28;20048;-85
2023/07/28 02:29:59;;;;;;;23.53;8.77;;;18.10;99.90;;;;;;5095655;28;20138;-85
2023/07/28 02:32:26;;;;;;;23.53;8.43;;;18.10;99.90;;;;;;5095889;28;20464;-85
2023/07/28 02:34:52;;;;;;;26.17;9.00;;;18.00;99.90;;;;;;5094779;28;20468;-85
2023/07/28 02:37:17;;;;;;;27.40;9.63;;;18.10;99.90;;;;;;5094357;28;20123;-86
2023/07/28 02:39:43;;;;;;;26.03;8.33;;;18.10;99.90;;;;;;5094547;28;20040;-85
2023/07/28 02:42:09;;;;;;;24.37;7.97;;;18.00;99.90;;;;;;5094150;28;20431;-84
2023/07/28 02:44:35;;;;;;;21.97;7.73;;;18.00;99.90;;;;;;5094756;28;20097;-84
2023/07/28 02:47:00;;;;;;;22.23;8.10;;;18.00;99.90;;;;;;5095184;28;20052;-83
2023/07/28 02:49:26;;;;;;;26.77;8.13;;;18.00;99.90;;;;;;5094664;28;20060;-84
2023/07/28 02:51:52;;;;;;;26.23;8.13;;;18.00;99.90;;;;;;5095492;28;20108;-86
2023/07/28 02:54:17;;;;;;;26.80;9.13;;;18.00;99.90;;;;;;5094192;28;20044;-86
2023/07/28 02:56:44;;;;;;;22.10;7.53;;;18.00;99.90;;;;;;5095322;28;20071;-85
2023/07/28 02:59:10;;;;;;;24.60;8.73;;;18.00;99.90;;;;;;5094922;28;20087;-85
2023/07/28 03:01:35;;;;;;;25.87;9.20;;;17.90;99.90;;;;;;5077319;28;20137;-85
2023/07/28 03:04:02;;;;;;;19.20;7.27;;;17.90;99.90;;;;;;5093934;28;20101;-85
2023/07/28 03:06:28;;;;;;;25.37;8.13;;;17.90;99.90;;;;;;5093870;28;20044;-85
2023/07/28 03:08:54;;;;;;;25.20;7.50;;;17.90;99.90;;;;;;5095183;28;20051;-86
2023/07/28 03:11:20;;;;;;;24.67;8.07;;;18.00;99.90;;;;;;5093525;28;20056;-85
2023/07/28 03:13:46;;;;;;;27.13;8.23;;;17.90;99.90;;;;;;5094897;28;20047;-85
2023/07/28 03:16:12;;;;;;;28.20;7.63;;;17.90;99.90;;;;;;5094710;28;20066;-85
2023/07/28 03:18:37;;;;;;;21.83;7.00;;;18.00;99.90;;;;;;5094987;28;20066;-85
2023/07/28 03:21:03;;;;;;;26.77;8.17;;;17.90;99.90;;;;;;5094589;28;20084;-84
2023/07/28 03:23:29;;;;;;;23.43;7.30;;;17.90;99.90;;;;;;5093368;28;20044;-85
2023/07/28 03:25:55;;;;;;;27.00;8.40;;;18.00;99.90;;;;;;5077045;28;20472;-84
2023/07/28 03:28:20;;;;;;;18.97;6.63;;;18.00;99.90;;;;;;5094417;28;20052;-85
2023/07/28 03:30:46;;;;;;;23.90;6.80;;;18.00;99.90;;;;;;5094651;28;20082;-84
2023/07/28 03:33:12;;;;;;;17.73;6.70;;;17.90;99.90;;;;;;5094413;28;20040;-84
2023/07/28 03:35:38;;;;;;;24.83;7.17;;;18.00;99.90;;;;;;5094695;28;20092;-85
2023/07/28 03:38:03;;;;;;;19.87;6.20;;;18.00;99.90;;;;;;5093238;28;20511;-81
2023/07/28 03:40:29;;;;;;;22.13;6.93;;;18.00;99.90;;;;;;5094315;28;20120;-85
2023/07/28 03:42:55;;;;;;;15.70;5.67;;;18.00;99.90;;;;;;5093285;28;20048;-84
2023/07/28 03:45:21;;;;;;;21.40;6.53;;;18.00;99.90;;;;;;5094350;28;20048;-85
2023/07/28 03:47:47;;;;;;;25.83;7.10;;;18.00;99.90;;;;;;5094405;28;20400;-84
2023/07/28 03:50:12;;;;;;;18.70;7.07;;;18.00;99.90;;;;;;5094154;28;20052;-85
2023/07/28 03:52:38;;;;;;;22.43;6.60;;;18.00;99.90;;;;;;5092902;28;20040;-84
2023/07/28 03:55:04;;;;;;;17.70;6.47;;;18.00;99.90;;;;;;5093837;28;20083;-83
2023/07/28 03:57:30;;;;;;;18.30;6.60;;;18.00;99.90;;;;;;5092309;28;20055;-85
2023/07/28 03:59:55;;;;;;;16.93;6.40;;;18.00;99.90;;;;;;5094016;28;20052;-85
2023/07/28 04:02:21;;;;;;;17.37;6.80;;;18.00;99.90;;;;;;5092483;28;20048;-85
2023/07/28 04:04:47;;;;;;;20.23;6.97;;;18.00;99.90;;;;;;5094099;28;20522;-85
2023/07/28 04:07:13;;;;;;;22.17;7.13;;;18.00;99.90;;;;;;5093771;28;20503;-85
2023/07/28 04:09:38;;;;;;;15.03;5.97;;;18.00;99.90;;;;;;5093670;28;20087;-85
2023/07/28 04:12:04;;;;;;;22.97;6.40;;;18.00;99.90;;;;;;5093940;28;20036;-86
2023/07/28 04:14:30;;;;;;;19.70;6.60;;;18.00;99.90;;;;;;5092650;28;20535;-87
2023/07/28 04:16:55;;;;;;;15.60;6.43;;;18.00;99.90;;;;;;5092916;28;20083;-87
2023/07/28 04:19:21;;;;;;;27.87;6.97;;;18.00;99.90;;;;;;5093691;28;20490;-87
2023/07/28 04:21:47;;;;;;;22.67;6.57;;;18.00;99.90;;;;;;5094013;28;20083;-88
2023/07/28 04:24:13;;;;;;;18.83;6.30;;;18.00;99.90;;;;;;5092285;28;20130;-87
2023/07/28 04:26:38;;;;;;;17.40;5.80;;;18.10;99.90;;;;;;5093734;28;20047;-87
2023/07/28 04:29:04;;;;;;;24.63;7.37;;;18.00;99.90;;;;;;5093707;28;20093;-86
2023/07/28 04:31:30;;;;;;;23.23;6.70;;;18.10;99.90;;;;;;5075509;28;20109;-86
2023/07/28 04:33:55;;;;;;;18.80;6.33;;;18.00;99.90;;;;;;5092573;28;20051;-85
2023/07/28 04:36:21;;;;;;;17.30;6.20;;;18.10;99.90;;;;;;5093338;28;20127;-85
2023/07/28 04:38:47;;;;;;;21.33;7.50;;;18.10;99.90;;;;;;5093735;28;20051;-85
2023/07/28 04:41:12;;;;;;;16.17;6.13;;;18.10;99.90;;;;;;5093144;28;20126;-84
2023/07/28 04:43:38;;;;;;;16.80;6.03;;;18.10;99.90;;;;;;5093378;28;20044;-84
2023/07/28 04:46:04;;;;;;;17.00;6.43;;;18.10;99.90;;;;;;5093461;28;20094;-84
2023/07/28 04:48:29;;;;;;;17.73;6.50;;;18.10;99.90;;;;;;5075246;28;20066;-84
2023/07/28 04:50:55;;;;;;;15.50;5.97;;;18.10;99.90;;;;;;5093635;28;20039;-84
2023/07/28 04:53:21;;;;;;;18.43;6.63;;;18.10;99.90;;;;;;5091768;28;20547;-83
2023/07/28 04:55:47;;;;;;;17.53;6.37;;;18.10;99.90;;;;;;5093393;28;20093;-83
2023/07/28 04:58:12;;;;;;;12.80;6.10;;;18.10;99.90;;;;;;5092805;28;20131;-83
2023/07/28 05:00:38;;;;;;;16.13;5.97;;;18.10;99.90;;;;;;5091898;28;20487;-83
2023/07/28 05:03:04;;;;;;;15.37;6.63;;;18.10;99.90;;;;;;5091925;28;20531;-82
2023/07/28 05:05:30;;;;;;;12.33;6.10;;;18.10;99.90;;;;;;5090445;28;20137;-83
2023/07/28 05:07:55;;;;;;;15.37;7.23;;;18.10;99.90;;;;;;5097462;28;20055;-82
2023/07/28 05:10:21;;;;;;;15.97;6.57;;;18.10;99.90;;;;;;5095900;28;20391;-82
2023/07/28 05:12:47;;;;;;;15.97;7.20;;;18.10;99.90;;;;;;5079313;28;20055;-83
2023/07/28 05:15:15;;;;;;;14.03;7.40;;;18.20;99.90;;;;;;5096302;28;20047;-82
2023/07/28 05:17:40;;;;;;;15.03;8.50;;;18.20;99.90;;;;;;5096440;28;20044;-82
2023/07/28 05:20:06;;;;;;;13.87;7.60;;;18.20;99.90;;;;;;5097074;28;20051;-82
2023/07/28 05:22:32;;;;;;;20.43;8.50;;;18.20;99.90;;;;;;5096622;28;20040;-82
2023/07/28 05:24:58;;;;;;;14.77;8.77;;;18.30;99.90;;;;;;5087298;28;20053;-82
2023/07/28 05:27:24;;;;;;;13.20;8.23;;;18.20;99.90;;;;;;5087331;28;20051;-82
2023/07/28 05:29:50;;;;;;;14.20;7.97;;;18.30;99.90;;;;;;5096910;28;20391;-82
2023/07/28 05:32:16;;;;;;;13.77;8.83;;;18.30;99.90;;;;;;5096931;28;20048;-82
2023/07/28 05:34:43;;;;;;;16.40;8.77;;;18.30;99.90;;;;;;5096453;28;20104;-83
2023/07/28 05:37:08;;;;;;;14.10;8.97;;;18.30;99.90;;;;;;5096656;28;20058;-82
2023/07/28 05:39:34;;;;;;;15.70;8.93;;;18.40;99.90;;;;;;5096520;28;20135;-82
2023/07/28 05:42:00;;;;;;;15.20;8.43;;;18.30;99.90;;;;;;5094993;28;20083;-82
2023/07/28 05:44:25;;;;;;;13.47;8.70;;;18.30;99.90;;;;;;5095480;28;20113;-83
2023/07/28 05:46:51;;;;;;;13.87;8.43;;;18.40;99.90;;;;;;5096756;28;20067;-84
2023/07/28 05:49:17;;;;;;;14.80;9.93;;;18.40;99.90;;;;;;5078830;28;20468;-83
2023/07/28 05:51:42;;;;;;;12.90;8.60;;;18.60;99.90;;;;;;5096169;28;20055;-84
2023/07/28 05:54:08;;;;;;;12.17;7.13;;;18.80;99.90;;;;;;5095408;28;20047;-83
2023/07/28 05:56:34;;;;;;;12.97;7.73;;;18.90;99.90;;;;;;5095791;28;20047;-84
2023/07/28 05:59:00;;;;;;;10.37;7.17;;;19.00;99.90;;;;;;5096301;28;20056;-84
2023/07/28 06:01:27;;;;;;;8.23;6.97;;;19.00;99.90;;;;;;5096007;28;20112;-84
2023/07/28 06:03:55;;;;;;;9.67;7.20;;;19.00;99.90;;;;;;5096510;28;20053;-84
2023/07/28 06:06:22;;;;;;;10.37;8.37;;;18.90;99.90;;;;;;5095390;28;20127;-84
2023/07/28 06:08:47;;;;;;;11.13;6.80;;;18.90;99.90;;;;;;5096164;28;20131;-83
2023/07/28 06:11:13;;;;;;;11.37;7.40;;;18.90;99.90;;;;;;5095662;28;20128;-83
2023/07/28 06:13:39;;;;;;;12.27;7.67;;;18.90;99.90;;;;;;5094453;28;20100;-82
2023/07/28 06:16:04;;;;;;;9.27;7.30;;;18.90;99.90;;;;;;5092824;28;20461;-84
2023/07/28 06:18:30;;;;;;;10.73;8.03;;;19.00;99.90;;;;;;5095131;28;20044;-82
2023/07/28 06:20:56;;;;;;;10.33;7.50;;;19.00;99.90;;;;;;5096023;28;20520;-84
2023/07/28 06:23:21;;;;;;;9.13;6.87;;;19.00;99.90;;;;;;5094753;28;20048;-83
2023/07/28 06:25:47;;;;;;;10.20;7.20;;;19.00;99.90;;;;;;5095559;28;20077;-82
2023/07/28 06:28:13;;;;;;;10.43;7.47;;;19.00;99.90;;;;;;5095480;28;20470;-82
2023/07/28 06:30:39;;;;;;;10.37;7.13;;;19.00;99.90;;;;;;5095589;28;20051;-81
2023/07/28 06:33:06;;;;;;;12.23;7.57;;;18.90;99.90;;;;;;5094188;28;20060;-82
2023/07/28 06:35:32;;;;;;;9.90;7.40;;;18.80;99.90;;;;;;5095429;28;20059;-82
2023/07/28 06:37:59;;;;;;;8.20;7.20;;;18.80;99.90;;;;;;5095638;28;20048;-82
2023/07/28 06:40:25;;;;;;;10.93;7.97;;;18.80;99.90;;;;;;5095468;28;20507;-82
2023/07/28 06:42:51;;;;;;;11.13;8.20;;;18.80;99.90;;;;;;5077227;28;20036;-82
2023/07/28 06:45:17;;;;;;;9.60;7.87;;;18.80;99.90;;;;;;5095650;28;20055;-82
2023/07/28 06:47:42;;;;;;;10.97;9.87;;;18.80;99.90;;;;;;5077411;28;20051;-85
2023/07/28 06:50:08;;;;;;;8.97;7.03;;;19.40;99.90;;;;;;5095602;28;20039;-85
2023/07/28 06:52:34;;;;;;;8.53;7.17;;;20.20;99.90;;;;;;5093118;28;20051;-86
2023/07/28 06:55:00;;;;;;;9.60;7.07;;;20.50;99.90;;;;;;5095231;28;20101;-86
2023/07/28 06:57:26;;;;;;;7.67;6.20;;;20.40;99.90;;;;;;5093588;28;20136;-78
2023/07/28 06:59:51;;;;;;;8.33;6.70;;;20.30;99.90;;;;;;5093492;28;20454;-81
2023/07/28 07:02:17;;;;;;;8.10;6.27;;;20.10;99.90;;;;;;5094830;28;20043;-80
2023/07/28 07:04:43;;;;;;;8.83;6.30;;;20.00;99.90;;;;;;5094721;28;20105;-79
2023/07/28 07:07:09;;;;;;;8.90;6.73;;;19.80;99.90;;;;;;5093701;28;20096;-82
2023/07/28 07:09:35;;;;;;;10.77;6.83;;;19.70;99.90;;;;;;5094608;28;20135;-81
2023/07/28 07:12:01;;;;;;;8.37;6.07;;;19.60;99.90;;;;;;5094754;28;20054;-78
2023/07/28 07:14:26;;;;;;;9.40;6.00;;;19.60;99.90;;;;;;5094832;28;20048;-80
2023/07/28 07:16:52;;;;;;;9.90;7.20;;;19.60;99.90;;;;;;5094411;28;20486;-81
2023/07/28 07:19:19;;;;;;;11.57;6.87;;;19.60;99.90;;;;;;5094774;28;20044;-79
2023/07/28 07:21:44;;;;;;;8.53;7.07;;;19.80;99.90;;;;;;5093238;28;20048;-80
2023/07/28 07:24:13;;;;;;;10.37;7.13;;;20.10;99.90;;;;;;5094515;28;20047;-80
2023/07/28 07:26:42;;;;;;;8.67;6.80;;;20.40;99.90;;;;;;5094350;28;20058;-80
2023/07/28 07:29:09;;;;;;;8.30;6.43;;;20.50;99.90;;;;;;5094066;28;20048;-80
2023/07/28 07:31:35;;;;;;;10.57;6.87;;;20.30;99.90;;;;;;5093073;28;20048;-79
2023/07/28 07:34:01;;;;;;;7.27;5.30;;;20.30;99.90;;;;;;5094344;28;20456;-80
2023/07/28 07:36:26;;;;;;;8.90;6.10;;;20.40;99.90;;;;;;5094280;28;20051;-80
2023/07/28 07:38:52;;;;;;;8.33;5.93;;;20.30;99.90;;;;;;5093643;28;20515;-80
2023/07/28 07:41:20;;;;;;;9.37;5.07;;;20.30;99.90;;;;;;5094272;28;20043;-82
2023/07/28 07:43:52;;;;;;;11.43;5.70;;;20.20;99.90;;;;;;5093931;28;20044;-80
2023/07/28 07:46:19;;;;;;;6.70;4.60;;;20.20;99.90;;;;;;5093078;28;20074;-79
2023/07/28 07:48:45;;;;;;;9.07;5.80;;;20.10;99.90;;;;;;5093492;28;20500;-80
2023/07/28 07:51:11;;;;;;;7.07;5.20;;;20.10;99.90;;;;;;5094040;28;20044;-80
2023/07/28 07:53:36;;;;;;;6.63;5.93;;;20.20;99.90;;;;;;5093859;28;20043;-79
2023/07/28 07:56:07;;;;;;;7.30;5.03;;;20.30;99.90;;;;;;5092952;28;20404;-78
2023/07/28 07:58:33;;;;;;;10.30;5.70;;;20.50;99.90;;;;;;5094091;28;20063;-77
2023/07/28 08:00:58;;;;;;;9.87;5.50;;;20.60;99.90;;;;;;5093278;28;20444;-80
2023/07/28 08:03:24;;;;;;;8.87;5.30;;;20.60;99.90;;;;;;5093816;28;20051;-79
2023/07/28 08:05:51;;;;;;;7.77;5.80;;;20.60;99.90;;;;;;5093536;28;20075;-80
2023/07/28 08:08:19;;;;;;;7.63;4.77;;;20.60;99.90;;;;;;5093913;28;20136;-81
2023/07/28 08:10:47;;;;;;;7.40;5.20;;;20.70;99.90;;;;;;5085947;28;20127;-83
2023/07/28 08:13:13;;;;;;;7.93;4.63;;;21.10;99.90;;;;;;5081088;28;20059;-82
2023/07/28 08:15:38;;;;;;;5.80;3.90;;;22.30;99.90;;;;;;5072131;28;20041;-80
2023/07/28 08:18:04;;;;;;;5.80;3.20;;;23.90;99.90;;;;;;5073423;28;20150;-82
2023/07/28 08:20:30;;;;;;;7.70;3.90;;;24.70;99.90;;;;;;5086940;28;20048;-75
2023/07/28 08:22:56;;;;;;;5.33;3.40;;;25.10;99.90;;;;;;5090803;28;20036;-81
2023/07/28 08:25:23;;;;;;;5.90;3.80;;;25.30;99.90;;;;;;5093098;28;20113;-81
2023/07/28 08:27:49;;;;;;;7.60;4.00;;;25.20;99.90;;;;;;5093264;28;20567;-80
2023/07/28 08:30:15;;;;;;;4.80;3.27;;;24.70;99.90;;;;;;5092769;28;20044;-80
2023/07/28 08:32:42;;;;;;;5.33;3.40;;;24.10;99.90;;;;;;5086760;28;20476;-78
2023/07/28 08:35:08;;;;;;;5.10;2.90;;;23.70;99.90;;;;;;5085237;28;20051;-79
2023/07/28 08:37:34;;;;;;;7.70;3.17;;;23.90;99.90;;;;;;5083627;28;20048;-81
2023/07/28 08:40:00;;;;;;;5.40;3.03;;;24.30;99.90;;;;;;5081152;28;20449;-78
2023/07/28 08:42:28;;;;;;;6.07;2.97;;;24.10;99.90;;;;;;5082482;28;20598;-74
2023/07/28 08:44:54;;;;;;;5.17;3.07;;;23.70;99.90;;;;;;5071591;28;20045;-80
2023/07/28 08:47:21;;;;;;;7.07;4.17;;;23.40;99.90;;;;;;5073057;28;20044;-80
2023/07/28 08:49:47;;;;;;;5.60;3.97;;;23.00;99.90;;;;;;5071635;28;20048;-79
2023/07/28 08:52:16;;;;;;;6.60;3.67;;;22.80;99.90;;;;;;5072881;28;20036;-75
2023/07/28 08:54:42;;;;;;;6.90;4.20;;;22.70;99.90;;;;;;5073061;28;20044;-74
2023/07/28 08:57:10;;;;;;;5.53;3.50;;;22.80;99.90;;;;;;5054609;28;20058;-67
2023/07/28 08:59:36;;;;;;;4.27;2.90;;;22.90;99.90;;;;;;5073043;28;20123;-68
2023/07/28 09:02:02;;;;;;;5.43;2.90;;;23.10;99.90;;;;;;5072446;28;20044;-69
2023/07/28 09:04:28;;;;;;;5.40;2.80;;;23.10;99.90;;;;;;5080176;28;20048;-68
2023/07/28 09:06:54;;;;;;;6.80;2.97;;;23.00;99.90;;;;;;5088189;28;20089;-69
2023/07/28 09:09:22;;;;;;;4.67;2.57;;;22.80;99.90;;;;;;5089785;28;20074;-70
2023/07/28 09:11:52;;;;;;;5.70;2.10;;;22.90;99.90;;;;;;5090441;28;20056;-70
2023/07/28 09:14:20;;;;;;;5.70;2.60;;;22.80;99.90;;;;;;5090413;28;20051;-69
2023/07/28 09:16:46;;;;;;;5.97;2.63;;;22.80;99.90;;;;;;5092354;28;20059;-69
2023/07/28 09:19:13;;;;;;;6.17;2.50;;;22.70;99.90;;;;;;5092083;28;20543;-69
2023/07/28 09:21:40;;;;;;;4.67;1.80;;;22.50;99.90;;;;;;5092408;28;20044;-69
2023/07/28 09:24:13;;;;;;;4.10;2.00;;;22.50;99.90;;;;;;5092037;28;20071;-69
2023/07/28 09:26:44;;;;;;;5.20;2.13;;;22.30;99.90;;;;;;5090408;28;20094;-80
2023/07/28 09:29:13;;;;;;;4.63;2.20;;;22.30;99.90;;;;;;5074683;28;20047;-76
2023/07/28 09:31:39;;;;;;;4.83;2.10;;;22.10;99.90;;;;;;5092454;28;20502;-78
2023/07/28 09:34:09;;;;;;;5.10;2.23;;;22.20;99.90;;;;;;5092570;28;20044;-79
2023/07/28 09:36:38;;;;;;;7.20;2.50;;;22.30;99.90;;;;;;5092875;28;20054;-75
2023/07/28 09:39:10;;;;;;;8.43;2.30;;;22.50;99.90;;;;;;5092350;28;20044;-71
2023/07/28 09:41:37;;;;;;;6.33;2.70;;;22.40;99.90;;;;;;5092856;28;20130;-76
2023/07/28 09:44:05;;;;;;;7.13;2.47;;;22.30;99.90;;;;;;5091130;28;20040;-69
2023/07/28 09:46:36;;;;;;;4.70;2.20;;;22.40;99.90;;;;;;5085748;28;20047;-71
2023/07/28 09:49:10;;;;;;;4.63;1.93;;;22.40;99.90;;;;;;5092216;28;20428;-72
2023/07/28 09:51:38;;;;;;;;;;;22.50;99.90;;;;;;5094936;28;20496;-70
2023/07/28 09:54:12;;;;;;;3.97;1.90;;;22.50;99.90;;;;;;5096162;28;19927;-71
2023/07/28 09:56:39;;;;;;;6.20;2.00;;;22.40;99.90;;;;;;5096495;28;20048;-77
2023/07/28 09:59:12;;;;;;;5.70;2.00;;;22.40;99.90;;;;;;5096321;28;20099;-82
2023/07/28 10:01:39;;;;;;;5.40;2.17;;;22.40;99.90;;;;;;5096421;28;20087;-79
2023/07/28 10:04:05;;;;;;;6.87;2.50;;;22.40;99.90;;;;;;5095879;28;20044;-79
2023/07/28 10:06:33;;;;;;;6.10;2.10;;;22.40;99.90;;;;;;5078347;28;20484;-78
2023/07/28 10:08:59;;;;;;;5.57;2.43;;;22.50;99.90;;;;;;5094899;28;20051;-77
2023/07/28 10:11:27;;;;;;;4.77;2.33;;;22.50;99.90;;;;;;5096177;28;20042;-80
2023/07/28 10:13:54;;;;;;;5.60;2.20;;;22.50;99.90;;;;;;5096313;28;20097;-81
2023/07/28 10:16:29;;;;;;;4.63;2.40;;;22.50;99.90;;;;;;5095948;28;20105;-83
2023/07/28 10:18:55;;;;;;;4.88;2.03;;;22.60;99.90;;;;;;5095772;28;20062;-79
2023/07/28 10:21:21;;;;;;;4.20;1.80;;;22.80;99.90;;;;;;5095944;28;20112;-80
2023/07/28 10:23:55;;;;;;;5.07;2.00;;;22.90;99.90;;;;;;5095527;28;20052;-69
2023/07/28 10:26:44;;;;;;;6.40;2.15;;;22.90;99.90;;;;;;5094833;28;20044;-69
2023/07/28 10:29:14;;;;;;;3.00;1.70;;;22.90;99.90;;;;;;5095596;28;20051;-80
2023/07/28 10:31:51;;;;;;;4.97;1.80;;;22.90;99.90;;;;;;5089516;28;20051;-77
2023/07/28 10:34:18;;;;;;;4.30;1.60;;;22.90;99.90;;;;;;5086683;28;20047;-79
2023/07/28 10:36:45;;;;;;;5.37;2.10;;;23.00;99.90;;;;;;5095561;28;20055;-72
2023/07/28 10:39:17;;;;;;;4.57;1.80;;;23.00;99.90;;;;;;5095282;28;20048;-80
2023/07/28 10:42:08;;;;;;;3.93;1.70;;;23.10;99.90;;;;;;5092667;28;20048;-79
2023/07/28 10:44:34;;;;;;;4.93;2.13;;;23.10;99.90;;;;;;5093687;28;20059;-82
2023/07/28 10:47:01;;;;;;;3.33;1.57;;;23.10;99.90;;;;;;5095241;28;20048;-77
2023/07/28 10:49:28;;;;;;;4.53;1.87;;;23.10;99.90;;;;;;5095504;28;20058;-81
2023/07/28 10:51:54;;;;;;;5.47;2.10;;;23.00;99.90;;;;;;5094272;28;20048;-80
2023/07/28 10:54:20;;;;;;;4.87;2.00;;;23.00;99.90;;;;;;5094100;28;20075;-81
2023/07/28 10:56:49;;;;;;;3.77;1.80;;;22.90;99.90;;;;;;5095334;28;20119;-81
2023/07/28 10:59:15;;;;;;;4.67;1.83;;;22.90;99.90;;;;;;5095119;28;20098;-82
2023/07/28 11:01:42;;;;;;;4.83;2.47;;;22.90;99.90;;;;;;5094030;28;20120;-80
2023/07/28 11:04:19;;;;;;;6.47;2.33;;;22.90;99.90;;;;;;5094216;28;20126;-80
2023/07/28 11:06:47;;;;;;;4.57;2.00;;;23.00;99.90;;;;;;5095051;28;20056;-81
2023/07/28 11:09:14;;;;;;;5.03;2.03;;;23.00;99.90;;;;;;5090966;28;20036;-77
2023/07/28 11:11:41;;;;;;;3.57;2.00;;;23.00;99.90;;;;;;5073680;28;20499;-81
2023/07/28 11:14:08;;;;;;;7.03;1.80;;;23.10;99.90;;;;;;5074388;28;20048;-76
2023/07/28 11:16:38;;;;;;;4.30;2.17;;;23.10;99.90;;;;;;5073054;28;20496;-78
2023/07/28 11:19:10;;;;;;;5.97;1.97;;;23.20;99.90;;;;;;5074315;28;20528;-84
2023/07/28 11:21:40;;;;;;;4.53;1.90;;;23.20;99.90;;;;;;5085748;28;20414;-75
2023/07/28 11:24:09;;;;;;;3.57;2.07;;;23.30;99.90;;;;;;5074078;28;20044;-71
2023/07/28 11:26:39;;;;;;;6.00;2.00;;;23.30;99.90;;;;;;5072981;28;20515;-69
2023/07/28 11:29:05;;;;;;;3.57;1.70;;;23.40;99.90;;;;;;5073996;28;20118;-70
2023/07/28 11:31:33;;;;;;;3.83;1.70;;;23.50;99.90;;;;;;5093790;28;20055;-68
2023/07/28 11:33:58;;;;;;;4.33;1.70;;;23.60;99.90;;;;;;5094362;28;20484;-69
2023/07/28 11:36:29;;;;;;;4.40;1.70;;;23.60;99.90;;;;;;5093151;28;20058;-69
2023/07/28 11:38:58;;;;;;;5.50;2.20;;;23.60;99.90;;;;;;5094320;28;20051;-75
2023/07/28 11:41:25;;;;;;;3.73;2.30;;;23.60;99.90;;;;;;5094020;28;20051;-70
2023/07/28 11:43:51;;;;;;;4.90;2.30;;;23.60;99.90;;;;;;5093747;28;20480;-79
2023/07/28 11:46:35;;;;;;;4.10;2.17;;;23.60;99.90;;;;;;5094047;28;20039;-82
2023/07/28 11:49:19;;;;;;;3.90;2.10;;;23.60;99.90;;;;;;5093050;28;20109;-78
2023/07/28 11:51:47;;;;;;;4.23;2.17;;;23.60;99.90;;;;;;5091953;28;20114;-77
2023/07/28 11:54:21;;;;;;;4.73;2.37;;;23.60;99.90;;;;;;5075851;28;20491;-78
2023/07/28 11:56:49;;;;;;;5.30;2.33;;;23.60;99.90;;;;;;5094341;28;20391;-76
2023/07/28 11:59:16;;;;;;;5.23;2.27;;;23.70;99.90;;;;;;5093694;28;20067;-79
2023/07/28 12:02:11;;;;;;;3.93;1.90;;;23.70;99.90;;;;;;5093885;28;20510;-77
2023/07/28 12:04:39;;;;;;;6.13;2.60;;;23.60;99.90;;;;;;5079734;28;20484;-78
2023/07/28 12:07:08;;;;;;;4.00;2.30;;;23.60;99.90;;;;;;5093062;28;20095;-79
2023/07/28 12:09:46;;;;;;;5.00;2.40;;;23.60;99.90;;;;;;5093744;28;20040;-78
2023/07/28 12:12:12;;;;;;;3.53;1.90;;;23.50;99.90;;;;;;5093422;28;20087;-79
2023/07/28 12:14:39;;;;;;;4.70;2.23;;;23.50;99.90;;;;;;5093661;28;20044;-81
2023/07/28 12:17:15;;;;;;;4.10;1.80;;;23.50;99.90;;;;;;5093736;28;20048;-77
2023/07/28 12:19:54;;;;;;;3.77;2.37;;;23.50;99.90;;;;;;5093596;28;20044;-79
2023/07/28 12:22:20;;;;;;;4.83;2.30;;;23.50;99.90;;;;;;5086303;28;20110;-71
2023/07/28 12:24:46;;;;;;;4.23;2.40;;;23.50;99.90;;;;;;5075233;28;20150;-87
2023/07/28 12:27:13;;;;;;;4.10;1.97;;;23.50;99.90;;;;;;5093535;28;20035;-78
2023/07/28 12:29:39;;;;;;;4.40;2.23;;;23.50;99.90;;;;;;5093421;28;20558;-71
2023/07/28 12:32:05;;;;;;;5.00;2.37;;;23.50;99.90;;;;;;5092564;28;20056;-69
2023/07/28 12:34:30;;;;;;;5.13;2.00;;;23.50;99.90;;;;;;5093184;28;20087;-69
2023/07/28 12:36:56;;;;;;;4.30;2.43;;;23.60;99.90;;;;;;5092193;28;20102;-70
2023/07/28 12:39:23;;;;;;;5.50;2.20;;;23.70;99.90;;;;;;5093067;28;20135;-70